Fredericksburg, TX

10:32 AM CDT on May 24, 2015 (GMT -0500)
KNOPP SCHOOL RD | | Change Station
CLOSE
Current Station
Personal Weather Station
Location: Fredericksburg, TX
Elevation: 1752 ft
Nearby Weather Stations

Elev 1752 ft 30.33 °N, 98.80 °W | Updated 8 minutes ago

Clear
Clear
70.0 °F
Feels Like 70.0 °F
N
2.7
Wind Variable Wind from SE

Today
High -- | Low -- °F
--% Chance of Precip.
Yesterday
High -- | Low -- °F
Precip. -- in
6:36 AM 8:28 PM
Waxing Crescent, 40% visible
Pressure 29.92 in
Visibility 10.0 miles
Clouds Clear
Dew Point 63 °F
Humidity 79%
Rainfall 0.57 in
Snow Depth Not available.
UV 6 out of 12
Pollen .70 out of 12
Air Quality Not available.
Flu Activity Sporadic
METAR KT82 241515Z AUTO 16003KT 10SM CLR 19/17 A2992 RMK AO2 T01930167

More Conditions Fewer Conditions

Pressure 29.92 in
Visibility 10.0 miles
Clouds Clear
Dew Point 63 °F
Humidity 79%
Rainfall 0.57 in
Snow Depth Not available.
UV 6 out of 12
Pollen .70 out of 12
Air Quality Not available.
Flu Activity Sporadic
METAR KT82 241515Z AUTO 16003KT 10SM CLR 19/17 A2992 RMK AO2 T01930167

More Conditions Fewer Conditions

10-Day Weather Forecast

Almanac

Astronomy

May. 24, 2015 Rise Set
Actual Time
Civil Twilight
Nautical Twilight
Astronomical Twilight
Moon
Length of Visible Light
Length of Day
Tomorrow will be .
, % of the Moon is Illuminated

Today's Extremes

State Highs State Lows

Community

WunderPhotos

Upload Photos

1,823,770 photos uploaded!

WunderBlogs® & News

Nearby

Air Quality

  Air Quality AQ Index Pollutant
Not available.

Snow Depth

Station Depth Elevation

Earthquake Activity

City Distance Mag. Time & Date
Minimum magnitude displayed is 2.5.

Coastal Water Temperatures

Place Temperature

Stations

Nearby Weather Stations

Station Location Temp. Windchill Dew Point Humidity Wind Precip. Elev Updated Type